Flood From: 18-02-2018 10:00 Until: 19-02-2018 06:00 warning for: Flood Level: Yellow info button

Although rather usual in this region, locally or potentially dangerous phenomena are expected. (such as local winds, summer thunderstorms, rising streams or high waves) Be aware and pay attention to the latest weather updates, especially if you carry out activities exposed to weather or close to a stream or shoreline. 


Meteo18 Weather Cam more information Meteo18 Weather Cam


Thunder radar more information blitzortung!


Rain radar more information rain snow radar


Visit our other weather sites:

Template documentation
and downloads

And another site



Weather Underground History page Text

Daily Summary for April 12, 2017 Units:  Both    English   Metric
« Previous Day
Next Day »
Daily Weekly Monthly Yearly Custom
  High: Low: Average:
Temperature: TemperatureC °F /  -17.8 °C 2.8 °F /  -16.2 °C 11.7 °F /  -11.3 °C
Dew Point: DewpointC °F /  -17.8 °C 0.3 °F /  -17.6 °C 3.8 °F /  -15.7 °C
Humidity: Humidity % 41 % 60 %
Wind Speed: WindSpeedKMH mph /  0 km/h - 2.9 mph /  4.7 km/h
Wind Gust: WindSpeedGustKMH mph /  0 km/h - -
Wind:- - SW
Pressure: PressurehPa in /  0 hPa 1018.5 in /  34486.4 hPa -
Precipitation: 0.0 in /  0 mm    
Historical Graphs
 
 
Tabular Data for April 12, 2017
Time Temperature Dew Point Pressure Wind Wind Speed Wind Gust Humidity Rainfall Rate (Hourly)
TemperatureC °F /  -17.8 °C DewpointC °F /  -17.8 °C PressurehPa in /  0 hPa Calm     Humidity % HourlyPrecipMM in /  0 mm
00:02 8.3 °F /  -13.2 °C 2.7 °F /  -16.3 °C 1026.3 in /  34750.5 hPa WNW 1.6 mph /  2.6 km/h 3.2 mph /  5.1 km/h 68 % 0.0 in /  0 mm
00:12 8.3 °F /  -13.2 °C 2.5 °F /  -16.4 °C 1026.0 in /  34740.4 hPa Calm   3.2 mph /  5.1 km/h 67 % 0.0 in /  0 mm
00:17 8.3 °F /  -13.2 °C 2.5 °F /  -16.4 °C 1026.0 in /  34740.4 hPa Calm   3.2 mph /  5.1 km/h 67 % 0.0 in /  0 mm
00:22 8.2 °F /  -13.2 °C 2.4 °F /  -16.4 °C 1026.0 in /  34740.4 hPa NW 1.6 mph /  2.6 km/h 3.2 mph /  5.1 km/h 67 % 0.0 in /  0 mm
00:32 7.8 °F /  -13.4 °C 2.3 °F /  -16.5 °C 1026.0 in /  34740.4 hPa NNW 1.6 mph /  2.6 km/h 3.2 mph /  5.1 km/h 68 % 0.0 in /  0 mm
00:37 7.7 °F /  -13.5 °C 2.2 °F /  -16.6 °C 1026.0 in /  34740.4 hPa Calm   3.2 mph /  5.1 km/h 68 % 0.0 in /  0 mm
00:42 7.7 °F /  -13.5 °C 2.4 °F /  -16.4 °C 1026.0 in /  34740.4 hPa Calm   3.2 mph /  5.1 km/h 69 % 0.0 in /  0 mm
00:47 7.6 °F /  -13.6 °C 2.1 °F /  -16.6 °C 1026.0 in /  34740.4 hPa NW 1.6 mph /  2.6 km/h 3.2 mph /  5.1 km/h 68 % 0.0 in /  0 mm
00:52 7.6 °F /  -13.6 °C 2.1 °F /  -16.6 °C 1026.0 in /  34740.4 hPa NW 1.6 mph /  2.6 km/h 3.2 mph /  5.1 km/h 68 % 0.0 in /  0 mm
00:57 7.7 °F /  -13.5 °C 2.0 °F /  -16.7 °C 1026.0 in /  34740.4 hPa NW 1.6 mph /  2.6 km/h 3.2 mph /  5.1 km/h 67 % 0.0 in /  0 mm
01:02 7.8 °F /  -13.4 °C 1.8 °F /  -16.8 °C 1026.0 in /  34740.4 hPa Calm   3.2 mph /  5.1 km/h 66 % 0.0 in /  0 mm
01:07 7.7 °F /  -13.5 °C 1.7 °F /  -16.8 °C 1026.0 in /  34740.4 hPa NW 1.6 mph /  2.6 km/h 3.2 mph /  5.1 km/h 66 % 0.0 in /  0 mm
01:12 7.7 °F /  -13.5 °C 1.7 °F /  -16.8 °C 1026.0 in /  34740.4 hPa NW 1.6 mph /  2.6 km/h 3.2 mph /  5.1 km/h 66 % 0.0 in /  0 mm
01:17 7.6 °F /  -13.6 °C 1.7 °F /  -16.8 °C 1026.0 in /  34740.4 hPa NNW 1.6 mph /  2.6 km/h 3.2 mph /  5.1 km/h 66 % 0.0 in /  0 mm
01:22 7.5 °F /  -13.6 °C 1.6 °F /  -16.9 °C 1026.0 in /  34740.4 hPa North 1.6 mph /  2.6 km/h 3.2 mph /  5.1 km/h 66 % 0.0 in /  0 mm
01:32 6.8 °F /  -14 °C 1.3 °F /  -17.1 °C 1026.0 in /  34740.4 hPa NW 3.2 mph /  5.1 km/h 3.2 mph /  5.1 km/h 68 % 0.0 in /  0 mm
01:37 6.3 °F /  -14.3 °C 1.4 °F /  -17 °C 1025.6 in /  34726.8 hPa WNW 1.6 mph /  2.6 km/h 3.2 mph /  5.1 km/h 71 % 0.0 in /  0 mm
01:42 5.9 °F /  -14.5 °C 1.4 °F /  -17 °C 1026.0 in /  34740.4 hPa WNW 3.2 mph /  5.1 km/h 3.2 mph /  5.1 km/h 73 % 0.0 in /  0 mm
01:47 5.9 °F /  -14.5 °C 1.4 °F /  -17 °C 1025.6 in /  34726.8 hPa WNW 1.6 mph /  2.6 km/h 3.2 mph /  5.1 km/h 73 % 0.0 in /  0 mm
01:52 5.7 °F /  -14.6 °C 1.4 °F /  -17 °C 1025.6 in /  34726.8 hPa Calm   3.2 mph /  5.1 km/h 74 % 0.0 in /  0 mm
01:57 5.8 °F /  -14.6 °C 1.3 °F /  -17.1 °C 1025.6 in /  34726.8 hPa Calm   3.2 mph /  5.1 km/h 73 % 0.0 in /  0 mm
02:02 5.7 °F /  -14.6 °C 1.4 °F /  -17 °C 1025.6 in /  34726.8 hPa WNW 1.6 mph /  2.6 km/h 1.6 mph /  2.6 km/h 74 % 0.0 in /  0 mm
02:07 5.3 °F /  -14.8 °C 1.4 °F /  -17 °C 1025.6 in /  34726.8 hPa WNW 1.6 mph /  2.6 km/h 1.6 mph /  2.6 km/h 76 % 0.0 in /  0 mm
02:12 5.2 °F /  -14.9 °C 1.3 °F /  -17.1 °C 1025.6 in /  34726.8 hPa Calm   1.6 mph /  2.6 km/h 76 % 0.0 in /  0 mm
02:17 5.2 °F /  -14.9 °C 1.3 °F /  -17.1 °C 1025.6 in /  34726.8 hPa Calm   1.6 mph /  2.6 km/h 76 % 0.0 in /  0 mm
02:22 5.3 °F /  -14.8 °C 1.2 °F /  -17.1 °C 1025.3 in /  34716.7 hPa Calm   1.6 mph /  2.6 km/h 75 % 0.0 in /  0 mm
02:32 5.4 °F /  -14.8 °C 1.1 °F /  -17.2 °C 1025.3 in /  34716.7 hPa WNW 1.6 mph /  2.6 km/h 1.6 mph /  2.6 km/h 74 % 0.0 in /  0 mm
02:37 5.4 °F /  -14.8 °C 1.3 °F /  -17.1 °C 1025.3 in /  34716.7 hPa WNW 1.6 mph /  2.6 km/h 1.6 mph /  2.6 km/h 75 % 0.0 in /  0 mm
02:42 5.2 °F /  -14.9 °C 1.3 °F /  -17.1 °C 1025.3 in /  34716.7 hPa Calm   1.6 mph /  2.6 km/h 76 % 0.0 in /  0 mm
02:47 5.2 °F /  -14.9 °C 1.3 °F /  -17.1 °C 1025.3 in /  34716.7 hPa Calm   1.6 mph /  2.6 km/h 76 % 0.0 in /  0 mm
02:52 5.2 °F /  -14.9 °C 1.3 °F /  -17.1 °C 1025.3 in /  34716.7 hPa Calm   1.6 mph /  2.6 km/h 76 % 0.0 in /  0 mm
02:57 5.3 °F /  -14.8 °C 1.2 °F /  -17.1 °C 1024.9 in /  34703.1 hPa Calm   1.6 mph /  2.6 km/h 75 % 0.0 in /  0 mm
03:02 5.4 °F /  -14.8 °C 1.1 °F /  -17.2 °C 1024.9 in /  34703.1 hPa WNW 1.6 mph /  2.6 km/h 1.6 mph /  2.6 km/h 74 % 0.0 in /  0 mm
03:07 5.4 °F /  -14.8 °C 1.1 °F /  -17.2 °C 1024.9 in /  34703.1 hPa WNW 1.6 mph /  2.6 km/h 3.2 mph /  5.1 km/h 74 % 0.0 in /  0 mm
03:12 5.7 °F /  -14.6 °C 1.2 °F /  -17.1 °C 1024.9 in /  34703.1 hPa Calm   3.2 mph /  5.1 km/h 73 % 0.0 in /  0 mm
03:17 5.9 °F /  -14.5 °C 1.2 °F /  -17.1 °C 1024.9 in /  34703.1 hPa North 1.6 mph /  2.6 km/h 3.2 mph /  5.1 km/h 72 % 0.0 in /  0 mm
03:22 6.2 °F /  -14.3 °C 1.1 °F /  -17.2 °C 1024.9 in /  34703.1 hPa NW 1.6 mph /  2.6 km/h 3.2 mph /  5.1 km/h 70 % 0.0 in /  0 mm
03:32 5.7 °F /  -14.6 °C 1.0 °F /  -17.2 °C 1024.9 in /  34703.1 hPa Calm   3.2 mph /  5.1 km/h 72 % 0.0 in /  0 mm
03:37 5.3 °F /  -14.8 °C 0.9 °F /  -17.3 °C 1024.9 in /  34703.1 hPa Calm   3.2 mph /  5.1 km/h 73 % 0.0 in /  0 mm
03:42 5.7 °F /  -14.6 °C 1.2 °F /  -17.1 °C 1024.9 in /  34703.1 hPa Calm   3.2 mph /  5.1 km/h 73 % 0.0 in /  0 mm
03:52 5.1 °F /  -14.9 °C 1.0 °F /  -17.2 °C 1024.6 in /  34693 hPa NW 1.6 mph /  2.6 km/h 3.2 mph /  5.1 km/h 75 % 0.0 in /  0 mm
03:57 5.3 °F /  -14.8 °C 1.2 °F /  -17.1 °C 1024.6 in /  34693 hPa Calm   3.2 mph /  5.1 km/h 75 % 0.0 in /  0 mm
04:02 5.2 °F /  -14.9 °C 1.1 °F /  -17.2 °C 1024.6 in /  34693 hPa Calm   3.2 mph /  5.1 km/h 75 % 0.0 in /  0 mm
04:07 4.8 °F /  -15.1 °C 0.9 °F /  -17.3 °C 1024.6 in /  34693 hPa Calm   1.6 mph /  2.6 km/h 76 % 0.0 in /  0 mm
04:12 4.7 °F /  -15.2 °C 1.0 °F /  -17.2 °C 1024.6 in /  34693 hPa Calm   1.6 mph /  2.6 km/h 77 % 0.0 in /  0 mm
04:17 4.8 °F /  -15.1 °C 1.1 °F /  -17.2 °C 1024.6 in /  34693 hPa Calm     77 % 0.0 in /  0 mm
04:22 4.8 °F /  -15.1 °C 1.1 °F /  -17.2 °C 1024.3 in /  34682.8 hPa Calm     77 % 0.0 in /  0 mm
04:32 5.1 °F /  -14.9 °C 1.2 °F /  -17.1 °C 1024.3 in /  34682.8 hPa Calm     76 % 0.0 in /  0 mm
04:37 5.4 °F /  -14.8 °C 1.1 °F /  -17.2 °C 1024.3 in /  34682.8 hPa Calm     74 % 0.0 in /  0 mm
04:42 5.3 °F /  -14.8 °C 1.2 °F /  -17.1 °C 1024.3 in /  34682.8 hPa WNW 3.2 mph /  5.1 km/h 3.2 mph /  5.1 km/h 75 % 0.0 in /  0 mm
04:47 5.0 °F /  -15 °C 1.1 °F /  -17.2 °C 1024.3 in /  34682.8 hPa WNW 1.6 mph /  2.6 km/h 3.2 mph /  5.1 km/h 76 % 0.0 in /  0 mm
04:52 5.0 °F /  -15 °C 1.1 °F /  -17.2 °C 1024.3 in /  34682.8 hPa Calm   3.2 mph /  5.1 km/h 76 % 0.0 in /  0 mm
04:57 4.9 °F /  -15.1 °C 1.0 °F /  -17.2 °C 1024.3 in /  34682.8 hPa Calm   3.2 mph /  5.1 km/h 76 % 0.0 in /  0 mm
05:02 4.8 °F /  -15.1 °C 0.9 °F /  -17.3 °C 1024.3 in /  34682.8 hPa Calm   3.2 mph /  5.1 km/h 76 % 0.0 in /  0 mm
05:12 4.7 °F /  -15.2 °C 0.8 °F /  -17.3 °C 1024.3 in /  34682.8 hPa Calm   1.6 mph /  2.6 km/h 76 % 0.0 in /  0 mm
05:17 4.6 °F /  -15.2 °C 0.9 °F /  -17.3 °C 1024.3 in /  34682.8 hPa Calm   1.6 mph /  2.6 km/h 77 % 0.0 in /  0 mm
05:22 4.4 °F /  -15.3 °C 0.7 °F /  -17.4 °C 1024.3 in /  34682.8 hPa Calm   1.6 mph /  2.6 km/h 77 % 0.0 in /  0 mm
05:27 4.1 °F /  -15.5 °C 0.6 °F /  -17.4 °C 1024.3 in /  34682.8 hPa Calm   1.6 mph /  2.6 km/h 78 % 0.0 in /  0 mm
05:32 3.7 °F /  -15.7 °C 0.6 °F /  -17.4 °C 1024.3 in /  34682.8 hPa Calm   1.6 mph /  2.6 km/h 80 % 0.0 in /  0 mm
05:37 3.3 °F /  -15.9 °C 0.4 °F /  -17.6 °C 1023.9 in /  34669.3 hPa Calm   1.6 mph /  2.6 km/h 81 % 0.0 in /  0 mm
05:42 3.1 °F /  -16.1 °C 0.3 °F /  -17.6 °C 1023.9 in /  34669.3 hPa Calm   1.6 mph /  2.6 km/h 82 % 0.0 in /  0 mm
05:47 2.9 °F /  -16.2 °C 0.3 °F /  -17.6 °C 1023.9 in /  34669.3 hPa WNW 3.2 mph /  5.1 km/h 3.2 mph /  5.1 km/h 83 % 0.0 in /  0 mm
05:52 3.1 °F /  -16.1 °C 0.7 °F /  -17.4 °C 1023.9 in /  34669.3 hPa WNW 1.6 mph /  2.6 km/h 3.2 mph /  5.1 km/h 84 % 0.0 in /  0 mm
06:02 3.6 °F /  -15.8 °C 1.0 °F /  -17.2 °C 1023.9 in /  34669.3 hPa Calm   4.8 mph /  7.7 km/h 83 % 0.0 in /  0 mm
06:12 3.6 °F /  -15.8 °C 0.6 °F /  -17.4 °C 1023.9 in /  34669.3 hPa Calm   3.2 mph /  5.1 km/h 81 % 0.0 in /  0 mm
06:17 3.4 °F /  -15.9 °C 0.6 °F /  -17.4 °C 1023.9 in /  34669.3 hPa WNW 1.6 mph /  2.6 km/h 1.6 mph /  2.6 km/h 82 % 0.0 in /  0 mm
06:22 3.3 °F /  -15.9 °C 0.4 °F /  -17.6 °C 1023.9 in /  34669.3 hPa Calm   1.6 mph /  2.6 km/h 81 % 0.0 in /  0 mm
06:27 3.2 °F /  -16 °C 0.4 °F /  -17.6 °C 1023.9 in /  34669.3 hPa Calm   1.6 mph /  2.6 km/h 82 % 0.0 in /  0 mm
06:32 3.3 °F /  -15.9 °C 0.7 °F /  -17.4 °C 1023.9 in /  34669.3 hPa Calm   1.6 mph /  2.6 km/h 83 % 0.0 in /  0 mm
06:37 3.3 °F /  -15.9 °C 0.7 °F /  -17.4 °C 1023.9 in /  34669.3 hPa Calm   1.6 mph /  2.6 km/h 83 % 0.0 in /  0 mm
06:42 3.3 °F /  -15.9 °C 0.7 °F /  -17.4 °C 1023.9 in /  34669.3 hPa Calm   1.6 mph /  2.6 km/h 83 % 0.0 in /  0 mm
06:47 3.3 °F /  -15.9 °C 0.5 °F /  -17.5 °C 1023.9 in /  34669.3 hPa Calm   1.6 mph /  2.6 km/h 82 % 0.0 in /  0 mm
06:52 3.2 °F /  -16 °C 0.4 °F /  -17.6 °C 1023.9 in /  34669.3 hPa Calm   1.6 mph /  2.6 km/h 82 % 0.0 in /  0 mm
06:57 3.1 °F /  -16.1 °C 0.5 °F /  -17.5 °C 1023.9 in /  34669.3 hPa Calm   1.6 mph /  2.6 km/h 83 % 0.0 in /  0 mm
07:02 3.0 °F /  -16.1 °C 0.6 °F /  -17.4 °C 1023.9 in /  34669.3 hPa Calm   1.6 mph /  2.6 km/h 84 % 0.0 in /  0 mm
07:12 2.9 °F /  -16.2 °C 0.5 °F /  -17.5 °C 1023.9 in /  34669.3 hPa Calm   1.6 mph /  2.6 km/h 84 % 0.0 in /  0 mm
07:17 2.9 °F /  -16.2 °C 0.5 °F /  -17.5 °C 1023.6 in /  34659.1 hPa Calm   1.6 mph /  2.6 km/h 84 % 0.0 in /  0 mm
07:22 2.8 °F /  -16.2 °C 0.5 °F /  -17.5 °C 1023.9 in /  34669.3 hPa Calm   1.6 mph /  2.6 km/h 85 % 0.0 in /  0 mm
07:32 2.8 °F /  -16.2 °C 0.5 °F /  -17.5 °C 1023.9 in /  34669.3 hPa Calm   1.6 mph /  2.6 km/h 85 % 0.0 in /  0 mm
07:37 3.1 °F /  -16.1 °C 0.8 °F /  -17.3 °C 1023.9 in /  34669.3 hPa WNW 1.6 mph /  2.6 km/h 1.6 mph /  2.6 km/h 85 % 0.0 in /  0 mm
07:42 3.4 °F /  -15.9 °C 1.0 °F /  -17.2 °C 1023.9 in /  34669.3 hPa Calm   1.6 mph /  2.6 km/h 84 % 0.0 in /  0 mm
07:52 4.2 °F /  -15.4 °C 1.2 °F /  -17.1 °C 1024.3 in /  34682.8 hPa Calm   1.6 mph /  2.6 km/h 81 % 0.0 in /  0 mm
07:57 4.3 °F /  -15.4 °C 1.2 °F /  -17.1 °C 1024.3 in /  34682.8 hPa Calm     80 % 0.0 in /  0 mm
08:07 4.8 °F /  -15.1 °C 1.6 °F /  -16.9 °C 1024.3 in /  34682.8 hPa Calm     80 % 0.0 in /  0 mm
08:12 5.5 °F /  -14.7 °C 2.7 °F /  -16.3 °C 1024.3 in /  34682.8 hPa Calm     82 % 0.0 in /  0 mm
08:17 6.1 °F /  -14.4 °C 2.4 °F /  -16.4 °C 1024.3 in /  34682.8 hPa Calm     77 % 0.0 in /  0 mm
08:22 6.1 °F /  -14.4 °C 2.2 °F /  -16.6 °C 1024.3 in /  34682.8 hPa Calm     76 % 0.0 in /  0 mm
08:27 5.9 °F /  -14.5 °C 2.5 °F /  -16.4 °C 1024.3 in /  34682.8 hPa Calm     79 % 0.0 in /  0 mm
08:32 6.2 °F /  -14.3 °C 3.0 °F /  -16.1 °C 1024.3 in /  34682.8 hPa Calm     80 % 0.0 in /  0 mm
08:42 7.4 °F /  -13.7 °C 3.8 °F /  -15.7 °C 1024.6 in /  34693 hPa NNW 1.6 mph /  2.6 km/h 1.6 mph /  2.6 km/h 78 % 0.0 in /  0 mm
08:47 7.8 °F /  -13.4 °C 3.8 °F /  -15.7 °C 1024.6 in /  34693 hPa Calm   4.8 mph /  7.7 km/h 76 % 0.0 in /  0 mm
08:52 8.3 °F /  -13.2 °C 3.5 °F /  -15.8 °C 1024.6 in /  34693 hPa Calm   4.8 mph /  7.7 km/h 72 % 0.0 in /  0 mm
08:59 8.7 °F /  -12.9 °C 3.9 °F /  -15.6 °C 1024.6 in /  34693 hPa Calm   4.8 mph /  7.7 km/h 72 % 0.0 in /  0 mm
09:07 9.5 °F /  -12.5 °C 4.7 °F /  -15.2 °C 1024.6 in /  34693 hPa Calm   1.6 mph /  2.6 km/h 72 % 0.0 in /  0 mm
09:12 10.1 °F /  -12.2 °C 5.1 °F /  -14.9 °C 1024.3 in /  34682.8 hPa Calm   1.6 mph /  2.6 km/h 71 % 0.0 in /  0 mm
09:17 10.4 °F /  -12 °C 4.5 °F /  -15.3 °C 1024.6 in /  34693 hPa Calm     67 % 0.0 in /  0 mm
09:22 10.8 °F /  -11.8 °C 4.7 °F /  -15.2 °C 1024.3 in /  34682.8 hPa Calm     66 % 0.0 in /  0 mm
09:32 11.1 °F /  -11.6 °C 4.3 °F /  -15.4 °C 1024.3 in /  34682.8 hPa North 3.2 mph /  5.1 km/h   63 % 0.0 in /  0 mm
09:42 11.4 °F /  -11.4 °C 4.8 °F /  -15.1 °C 1024.3 in /  34682.8 hPa Calm   4.8 mph /  7.7 km/h 64 % 0.0 in /  0 mm
09:47 11.7 °F /  -11.3 °C 5.1 °F /  -14.9 °C 1024.3 in /  34682.8 hPa NE 1.6 mph /  2.6 km/h 6.4 mph /  10.3 km/h 64 % 0.0 in /  0 mm
09:52 11.9 °F /  -11.2 °C 5.1 °F /  -14.9 °C 1024.3 in /  34682.8 hPa NE 3.2 mph /  5.1 km/h 6.4 mph /  10.3 km/h 63 % 0.0 in /  0 mm
09:57 12.1 °F /  -11.1 °C 4.8 °F /  -15.1 °C 1024.3 in /  34682.8 hPa Calm   4.8 mph /  7.7 km/h 61 % 0.0 in /  0 mm
10:02 12.4 °F /  -10.9 °C 5.1 °F /  -14.9 °C 1024.3 in /  34682.8 hPa Calm   4.8 mph /  7.7 km/h 61 % 0.0 in /  0 mm
10:07 12.7 °F /  -10.7 °C 5.1 °F /  -14.9 °C 1024.3 in /  34682.8 hPa North 1.6 mph /  2.6 km/h 3.2 mph /  5.1 km/h 60 % 0.0 in /  0 mm
10:12 12.7 °F /  -10.7 °C 4.6 °F /  -15.2 °C 1024.3 in /  34682.8 hPa Calm   3.2 mph /  5.1 km/h 58 % 0.0 in /  0 mm
10:17 13.0 °F /  -10.6 °C 5.2 °F /  -14.9 °C 1024.3 in /  34682.8 hPa Calm   4.8 mph /  7.7 km/h 59 % 0.0 in /  0 mm
10:22 12.9 °F /  -10.6 °C 3.8 °F /  -15.7 °C 1024.3 in /  34682.8 hPa East 3.2 mph /  5.1 km/h 4.8 mph /  7.7 km/h 54 % 0.0 in /  0 mm
10:32 13.0 °F /  -10.6 °C 3.9 °F /  -15.6 °C 1024.3 in /  34682.8 hPa Calm   6.4 mph /  10.3 km/h 54 % 0.0 in /  0 mm
10:37 12.9 °F /  -10.6 °C 3.8 °F /  -15.7 °C 1024.3 in /  34682.8 hPa SE 1.6 mph /  2.6 km/h 6.4 mph /  10.3 km/h 54 % 0.0 in /  0 mm
10:42 13.2 °F /  -10.4 °C 3.8 °F /  -15.7 °C 1024.3 in /  34682.8 hPa SE 1.6 mph /  2.6 km/h 6.4 mph /  10.3 km/h 53 % 0.0 in /  0 mm
10:47 13.6 °F /  -10.2 °C 4.5 °F /  -15.3 °C 1024.3 in /  34682.8 hPa Calm   6.4 mph /  10.3 km/h 54 % 0.0 in /  0 mm
10:52 14.0 °F /  -10 °C 4.6 °F /  -15.2 °C 1024.3 in /  34682.8 hPa ESE 1.6 mph /  2.6 km/h 6.4 mph /  10.3 km/h 53 % 0.0 in /  0 mm
10:57 13.9 °F /  -10.1 °C 4.2 °F /  -15.4 °C 1024.3 in /  34682.8 hPa SE 1.6 mph /  2.6 km/h 6.4 mph /  10.3 km/h 52 % 0.0 in /  0 mm
11:02 13.9 °F /  -10.1 °C 3.9 °F /  -15.6 °C 1023.9 in /  34669.3 hPa Calm   6.4 mph /  10.3 km/h 51 % 0.0 in /  0 mm
11:12 14.1 °F /  -9.9 °C 3.5 °F /  -15.8 °C 1023.9 in /  34669.3 hPa Calm   6.4 mph /  10.3 km/h 49 % 0.0 in /  0 mm
11:17 14.5 °F /  -9.7 °C 4.5 °F /  -15.3 °C 1023.9 in /  34669.3 hPa East 3.2 mph /  5.1 km/h 6.4 mph /  10.3 km/h 51 % 0.0 in /  0 mm
11:22 14.6 °F /  -9.7 °C 4.0 °F /  -15.6 °C 1023.9 in /  34669.3 hPa Calm   6.4 mph /  10.3 km/h 49 % 0.0 in /  0 mm
11:32 15.2 °F /  -9.3 °C 4.3 °F /  -15.4 °C 1023.9 in /  34669.3 hPa Calm   4.8 mph /  7.7 km/h 48 % 0.0 in /  0 mm
11:37 14.9 °F /  -9.5 °C 4.0 °F /  -15.6 °C 1023.9 in /  34669.3 hPa Calm   4.8 mph /  7.7 km/h 48 % 0.0 in /  0 mm
11:42 15.1 °F /  -9.4 °C 4.2 °F /  -15.4 °C 1023.9 in /  34669.3 hPa ESE 3.2 mph /  5.1 km/h 4.8 mph /  7.7 km/h 48 % 0.0 in /  0 mm
11:52 15.8 °F /  -9 °C 4.2 °F /  -15.4 °C 1023.9 in /  34669.3 hPa SE 3.2 mph /  5.1 km/h 4.8 mph /  7.7 km/h 46 % 0.0 in /  0 mm
11:57 15.7 °F /  -9.1 °C 4.1 °F /  -15.5 °C 1023.9 in /  34669.3 hPa SE 1.6 mph /  2.6 km/h 4.8 mph /  7.7 km/h 46 % 0.0 in /  0 mm
12:02 15.4 °F /  -9.2 °C 4.4 °F /  -15.3 °C 1023.6 in /  34659.1 hPa South 1.6 mph /  2.6 km/h 8.0 mph /  12.9 km/h 48 % 0.0 in /  0 mm
12:12 15.5 °F /  -9.2 °C 4.2 °F /  -15.4 °C 1023.6 in /  34659.1 hPa ENE 6.4 mph /  10.3 km/h 8.0 mph /  12.9 km/h 47 % 0.0 in /  0 mm
12:17 15.4 °F /  -9.2 °C 4.7 °F /  -15.2 °C 1023.6 in /  34659.1 hPa East 1.6 mph /  2.6 km/h 8.0 mph /  12.9 km/h 49 % 0.0 in /  0 mm
12:22 15.4 °F /  -9.2 °C 4.1 °F /  -15.5 °C 1023.6 in /  34659.1 hPa North 4.8 mph /  7.7 km/h 8.0 mph /  12.9 km/h 47 % 0.0 in /  0 mm
12:27 15.3 °F /  -9.3 °C 4.1 °F /  -15.5 °C 1023.2 in /  34645.6 hPa Calm   6.4 mph /  10.3 km/h 47 % 0.0 in /  0 mm
12:32 15.3 °F /  -9.3 °C 4.1 °F /  -15.5 °C 1023.2 in /  34645.6 hPa NE 6.4 mph /  10.3 km/h 6.4 mph /  10.3 km/h 47 % 0.0 in /  0 mm
12:42 15.6 °F /  -9.1 °C 4.3 °F /  -15.4 °C 1023.2 in /  34645.6 hPa East 4.8 mph /  7.7 km/h 9.7 mph /  15.6 km/h 47 % 0.0 in /  0 mm
12:52 16.2 °F /  -8.8 °C 4.9 °F /  -15.1 °C 1023.2 in /  34645.6 hPa Calm   9.7 mph /  15.6 km/h 47 % 0.0 in /  0 mm
12:57 16.4 °F /  -8.7 °C 4.7 °F /  -15.2 °C 1022.9 in /  34635.4 hPa Calm   9.7 mph /  15.6 km/h 46 % 0.0 in /  0 mm
13:02 16.3 °F /  -8.7 °C 4.3 °F /  -15.4 °C 1022.9 in /  34635.4 hPa SSE 4.8 mph /  7.7 km/h 8.0 mph /  12.9 km/h 45 % 0.0 in /  0 mm
13:12 16.1 °F /  -8.8 °C 4.5 °F /  -15.3 °C 1022.9 in /  34635.4 hPa ENE 6.4 mph /  10.3 km/h 8.0 mph /  12.9 km/h 46 % 0.0 in /  0 mm
13:17 16.1 °F /  -8.8 °C 4.8 °F /  -15.1 °C 1022.9 in /  34635.4 hPa NNE 3.2 mph /  5.1 km/h 8.0 mph /  12.9 km/h 47 % 0.0 in /  0 mm
13:22 15.9 °F /  -8.9 °C 4.6 °F /  -15.2 °C 1022.6 in /  34625.2 hPa ESE 3.2 mph /  5.1 km/h 8.0 mph /  12.9 km/h 47 % 0.0 in /  0 mm
13:32 16.2 °F /  -8.8 °C 4.9 °F /  -15.1 °C 1022.6 in /  34625.2 hPa SSE 3.2 mph /  5.1 km/h 9.7 mph /  15.6 km/h 47 % 0.0 in /  0 mm
13:37 16.4 °F /  -8.7 °C 4.7 °F /  -15.2 °C 1022.2 in /  34611.7 hPa ENE 3.2 mph /  5.1 km/h 9.7 mph /  15.6 km/h 46 % 0.0 in /  0 mm
13:42 16.2 °F /  -8.8 °C 4.9 °F /  -15.1 °C 1022.2 in /  34611.7 hPa ENE 3.2 mph /  5.1 km/h 8.0 mph /  12.9 km/h 47 % 0.0 in /  0 mm
13:47 16.1 °F /  -8.8 °C 4.8 °F /  -15.1 °C 1022.2 in /  34611.7 hPa Calm   8.0 mph /  12.9 km/h 47 % 0.0 in /  0 mm
13:52 16.5 °F /  -8.6 °C 5.1 °F /  -14.9 °C 1022.2 in /  34611.7 hPa Calm   8.0 mph /  12.9 km/h 47 % 0.0 in /  0 mm
13:57 16.9 °F /  -8.4 °C 4.2 °F /  -15.4 °C 1022.2 in /  34611.7 hPa SE 4.8 mph /  7.7 km/h 8.0 mph /  12.9 km/h 43 % 0.0 in /  0 mm
14:02 16.9 °F /  -8.4 °C 4.2 °F /  -15.4 °C 1022.2 in /  34611.7 hPa SW 4.8 mph /  7.7 km/h 9.7 mph /  15.6 km/h 43 % 0.0 in /  0 mm
14:12 17.2 °F /  -8.2 °C 5.5 °F /  -14.7 °C 1021.9 in /  34601.5 hPa SW 8.0 mph /  12.9 km/h 12.9 mph /  20.8 km/h 46 % 0.0 in /  0 mm
14:17 17.4 °F /  -8.1 °C 5.0 °F /  -15 °C 1021.9 in /  34601.5 hPa West 3.2 mph /  5.1 km/h 12.9 mph /  20.8 km/h 44 % 0.0 in /  0 mm
14:22 17.2 °F /  -8.2 °C 4.8 °F /  -15.1 °C 1021.9 in /  34601.5 hPa West 4.8 mph /  7.7 km/h 16.1 mph /  25.9 km/h 44 % 0.0 in /  0 mm
14:27 17.2 °F /  -8.2 °C 5.5 °F /  -14.7 °C 1021.9 in /  34601.5 hPa SW 6.4 mph /  10.3 km/h 16.1 mph /  25.9 km/h 46 % 0.0 in /  0 mm
14:32 17.2 °F /  -8.2 °C 5.8 °F /  -14.6 °C 1021.6 in /  34591.4 hPa ESE 4.8 mph /  7.7 km/h 16.1 mph /  25.9 km/h 47 % 0.0 in /  0 mm
14:37 17.3 °F /  -8.2 °C 5.3 °F /  -14.8 °C 1021.6 in /  34591.4 hPa WSW 6.4 mph /  10.3 km/h 12.9 mph /  20.8 km/h 45 % 0.0 in /  0 mm
14:42 17.3 °F /  -8.2 °C 5.3 °F /  -14.8 °C 1021.6 in /  34591.4 hPa South 6.4 mph /  10.3 km/h 12.9 mph /  20.8 km/h 45 % 0.0 in /  0 mm
14:47 17.2 °F /  -8.2 °C 5.2 °F /  -14.9 °C 1021.6 in /  34591.4 hPa WSW 6.4 mph /  10.3 km/h 12.9 mph /  20.8 km/h 45 % 0.0 in /  0 mm
14:52 17.2 °F /  -8.2 °C 5.8 °F /  -14.6 °C 1021.6 in /  34591.4 hPa SW 6.4 mph /  10.3 km/h 16.1 mph /  25.9 km/h 47 % 0.0 in /  0 mm
14:57 17.1 °F /  -8.3 °C 5.4 °F /  -14.8 °C 1021.6 in /  34591.4 hPa SW 3.2 mph /  5.1 km/h 16.1 mph /  25.9 km/h 46 % 0.0 in /  0 mm
15:02 17.3 °F /  -8.2 °C 5.3 °F /  -14.8 °C 1021.6 in /  34591.4 hPa SW 8.0 mph /  12.9 km/h 14.5 mph /  23.3 km/h 45 % 0.0 in /  0 mm
15:12 17.5 °F /  -8.1 °C 6.1 °F /  -14.4 °C 1021.2 in /  34577.8 hPa SSW 3.2 mph /  5.1 km/h 14.5 mph /  23.3 km/h 47 % 0.0 in /  0 mm
15:22 17.6 °F /  -8 °C 5.2 °F /  -14.9 °C 1021.2 in /  34577.8 hPa East 1.6 mph /  2.6 km/h 12.9 mph /  20.8 km/h 44 % 0.0 in /  0 mm
15:32 18.0 °F /  -7.8 °C 5.9 °F /  -14.5 °C 1020.9 in /  34567.7 hPa SSE 8.0 mph /  12.9 km/h 12.9 mph /  20.8 km/h 45 % 0.0 in /  0 mm
15:37 18.2 °F /  -7.7 °C 5.7 °F /  -14.6 °C 1020.9 in /  34567.7 hPa SSW 12.9 mph /  20.8 km/h 14.5 mph /  23.3 km/h 44 % 0.0 in /  0 mm
15:42 18.1 °F /  -7.7 °C 5.3 °F /  -14.8 °C 1020.9 in /  34567.7 hPa SW 3.2 mph /  5.1 km/h 14.5 mph /  23.3 km/h 43 % 0.0 in /  0 mm
15:52 18.3 °F /  -7.6 °C 6.5 °F /  -14.2 °C 1020.5 in /  34554.1 hPa ESE 11.3 mph /  18.2 km/h 12.9 mph /  20.8 km/h 46 % 0.0 in /  0 mm
15:57 18.3 °F /  -7.6 °C 6.5 °F /  -14.2 °C 1020.5 in /  34554.1 hPa South 4.8 mph /  7.7 km/h 14.5 mph /  23.3 km/h 46 % 0.0 in /  0 mm
16:02 18.2 °F /  -7.7 °C 5.4 °F /  -14.8 °C 1020.5 in /  34554.1 hPa SW 6.4 mph /  10.3 km/h 14.5 mph /  23.3 km/h 43 % 0.0 in /  0 mm
16:12 18.2 °F /  -7.7 °C 5.7 °F /  -14.6 °C 1020.2 in /  34544 hPa SSW 3.2 mph /  5.1 km/h 19.3 mph /  31.1 km/h 44 % 0.0 in /  0 mm
16:17 18.2 °F /  -7.7 °C 6.1 °F /  -14.4 °C 1020.2 in /  34544 hPa SSW 1.6 mph /  2.6 km/h 19.3 mph /  31.1 km/h 45 % 0.0 in /  0 mm
16:22 18.3 °F /  -7.6 °C 5.5 °F /  -14.7 °C 1020.2 in /  34544 hPa SW 17.7 mph /  28.5 km/h 17.7 mph /  28.5 km/h 43 % 0.0 in /  0 mm
16:27 18.5 °F /  -7.5 °C 5.7 °F /  -14.6 °C 1020.2 in /  34544 hPa SW 12.9 mph /  20.8 km/h 20.9 mph /  33.6 km/h 43 % 0.0 in /  0 mm
16:32 18.6 °F /  -7.4 °C 5.1 °F /  -14.9 °C 1020.2 in /  34544 hPa SSW 11.3 mph /  18.2 km/h 20.9 mph /  33.6 km/h 41 % 0.0 in /  0 mm
16:37 18.5 °F /  -7.5 °C 5.7 °F /  -14.6 °C 1019.9 in /  34533.8 hPa SE 4.8 mph /  7.7 km/h 20.9 mph /  33.6 km/h 43 % 0.0 in /  0 mm
16:42 18.6 °F /  -7.4 °C 5.4 °F /  -14.8 °C 1019.9 in /  34533.8 hPa SE 1.6 mph /  2.6 km/h 20.9 mph /  33.6 km/h 42 % 0.0 in /  0 mm
16:47 18.8 °F /  -7.3 °C 6.0 °F /  -14.4 °C 1019.9 in /  34533.8 hPa South 11.3 mph /  18.2 km/h 20.9 mph /  33.6 km/h 43 % 0.0 in /  0 mm
16:52 18.6 °F /  -7.4 °C 5.4 °F /  -14.8 °C 1019.9 in /  34533.8 hPa West 1.6 mph /  2.6 km/h 14.5 mph /  23.3 km/h 42 % 0.0 in /  0 mm
16:57 18.6 °F /  -7.4 °C 5.4 °F /  -14.8 °C 1019.9 in /  34533.8 hPa NW 3.2 mph /  5.1 km/h 14.5 mph /  23.3 km/h 42 % 0.0 in /  0 mm
17:02 18.7 °F /  -7.4 °C 5.9 °F /  -14.5 °C 1019.9 in /  34533.8 hPa NW 4.8 mph /  7.7 km/h 12.9 mph /  20.8 km/h 43 % 0.0 in /  0 mm
17:07 18.9 °F /  -7.3 °C 6.0 °F /  -14.4 °C 1019.5 in /  34520.3 hPa WSW 6.4 mph /  10.3 km/h 14.5 mph /  23.3 km/h 43 % 0.0 in /  0 mm
17:12 18.8 °F /  -7.3 °C 6.3 °F /  -14.3 °C 1019.5 in /  34520.3 hPa Calm   16.1 mph /  25.9 km/h 44 % 0.0 in /  0 mm
17:17 18.8 °F /  -7.3 °C 6.0 °F /  -14.4 °C 1019.5 in /  34520.3 hPa WSW 3.2 mph /  5.1 km/h 16.1 mph /  25.9 km/h 43 % 0.0 in /  0 mm
17:22 18.9 °F /  -7.3 °C 6.4 °F /  -14.2 °C 1019.5 in /  34520.3 hPa WNW 9.7 mph /  15.6 km/h 16.1 mph /  25.9 km/h 44 % 0.0 in /  0 mm
17:27 18.7 °F /  -7.4 °C 5.9 °F /  -14.5 °C 1019.5 in /  34520.3 hPa WSW 4.8 mph /  7.7 km/h 12.9 mph /  20.8 km/h 43 % 0.0 in /  0 mm
17:32 18.8 °F /  -7.3 °C 6.0 °F /  -14.4 °C 1019.5 in /  34520.3 hPa WSW 14.5 mph /  23.3 km/h 14.5 mph /  23.3 km/h 43 % 0.0 in /  0 mm
17:37 18.8 °F /  -7.3 °C 6.3 °F /  -14.3 °C 1019.5 in /  34520.3 hPa WNW 4.8 mph /  7.7 km/h 16.1 mph /  25.9 km/h 44 % 0.0 in /  0 mm
17:42 19.1 °F /  -7.2 °C 6.6 °F /  -14.1 °C 1019.5 in /  34520.3 hPa WNW 6.4 mph /  10.3 km/h 16.1 mph /  25.9 km/h 44 % 0.0 in /  0 mm
17:47 18.9 °F /  -7.3 °C 5.7 °F /  -14.6 °C 1019.5 in /  34520.3 hPa WSW 4.8 mph /  7.7 km/h 14.5 mph /  23.3 km/h 42 % 0.0 in /  0 mm
17:52 18.9 °F /  -7.3 °C 6.4 °F /  -14.2 °C 1019.5 in /  34520.3 hPa SW 8.0 mph /  12.9 km/h 14.5 mph /  23.3 km/h 44 % 0.0 in /  0 mm
17:57 19.0 °F /  -7.2 °C 6.5 °F /  -14.2 °C 1019.2 in /  34510.1 hPa WNW 12.9 mph /  20.8 km/h 14.5 mph /  23.3 km/h 44 % 0.0 in /  0 mm
18:02 19.0 °F /  -7.2 °C 6.1 °F /  -14.4 °C 1019.2 in /  34510.1 hPa West 12.9 mph /  20.8 km/h 16.1 mph /  25.9 km/h 43 % 0.0 in /  0 mm
18:12 19.0 °F /  -7.2 °C 6.1 °F /  -14.4 °C 1019.2 in /  34510.1 hPa WSW 8.0 mph /  12.9 km/h 16.1 mph /  25.9 km/h 43 % 0.0 in /  0 mm
18:22 19.1 °F /  -7.2 °C 6.2 °F /  -14.3 °C 1019.2 in /  34510.1 hPa SW 4.8 mph /  7.7 km/h 14.5 mph /  23.3 km/h 43 % 0.0 in /  0 mm
18:27 19.1 °F /  -7.2 °C 6.6 °F /  -14.1 °C 1019.2 in /  34510.1 hPa West 14.5 mph /  23.3 km/h 14.5 mph /  23.3 km/h 44 % 0.0 in /  0 mm
18:32 19.0 °F /  -7.2 °C 6.5 °F /  -14.2 °C 1019.2 in /  34510.1 hPa West 9.7 mph /  15.6 km/h 14.5 mph /  23.3 km/h 44 % 0.0 in /  0 mm
18:42 19.0 °F /  -7.2 °C 6.1 °F /  -14.4 °C 1018.8 in /  34496.6 hPa SW 8.0 mph /  12.9 km/h 20.9 mph /  33.6 km/h 43 % 0.0 in /  0 mm
18:47 19.0 °F /  -7.2 °C 6.5 °F /  -14.2 °C 1018.8 in /  34496.6 hPa SSW 8.0 mph /  12.9 km/h 20.9 mph /  33.6 km/h 44 % 0.0 in /  0 mm
18:52 18.9 °F /  -7.3 °C 6.0 °F /  -14.4 °C 1018.8 in /  34496.6 hPa West 6.4 mph /  10.3 km/h 20.9 mph /  33.6 km/h 43 % 0.0 in /  0 mm
18:57 18.9 °F /  -7.3 °C 6.0 °F /  -14.4 °C 1018.8 in /  34496.6 hPa WSW 4.8 mph /  7.7 km/h 17.7 mph /  28.5 km/h 43 % 0.0 in /  0 mm
19:02 18.8 °F /  -7.3 °C 6.0 °F /  -14.4 °C 1018.8 in /  34496.6 hPa SSW 8.0 mph /  12.9 km/h 17.7 mph /  28.5 km/h 43 % 0.0 in /  0 mm
19:12 18.7 °F /  -7.4 °C 5.9 °F /  -14.5 °C 1018.8 in /  34496.6 hPa SSW 9.7 mph /  15.6 km/h 17.7 mph /  28.5 km/h 43 % 0.0 in /  0 mm
19:17 18.7 °F /  -7.4 °C 5.9 °F /  -14.5 °C 1018.8 in /  34496.6 hPa WSW 11.3 mph /  18.2 km/h 16.1 mph /  25.9 km/h 43 % 0.0 in /  0 mm
19:22 18.6 °F /  -7.4 °C 6.1 °F /  -14.4 °C 1018.8 in /  34496.6 hPa SW 4.8 mph /  7.7 km/h 19.3 mph /  31.1 km/h 44 % 0.0 in /  0 mm
19:32 18.4 °F /  -7.6 °C 6.3 °F /  -14.3 °C 1018.8 in /  34496.6 hPa SSW 8.0 mph /  12.9 km/h 19.3 mph /  31.1 km/h 45 % 0.0 in /  0 mm
19:37 18.3 °F /  -7.6 °C 6.5 °F /  -14.2 °C 1018.8 in /  34496.6 hPa SW 8.0 mph /  12.9 km/h 16.1 mph /  25.9 km/h 46 % 0.0 in /  0 mm
19:42 18.3 °F /  -7.6 °C 6.5 °F /  -14.2 °C 1018.8 in /  34496.6 hPa WSW 3.2 mph /  5.1 km/h 16.1 mph /  25.9 km/h 46 % 0.0 in /  0 mm
19:47 18.2 °F /  -7.7 °C 6.4 °F /  -14.2 °C 1018.5 in /  34486.4 hPa WSW 6.4 mph /  10.3 km/h 14.5 mph /  23.3 km/h 46 % 0.0 in /  0 mm
19:52 18.0 °F /  -7.8 °C 6.2 °F /  -14.3 °C 1018.8 in /  34496.6 hPa West 6.4 mph /  10.3 km/h 11.3 mph /  18.2 km/h 46 % 0.0 in /  0 mm
19:57 17.7 °F /  -7.9 °C 5.9 °F /  -14.5 °C 1018.8 in /  34496.6 hPa WSW 8.0 mph /  12.9 km/h 16.1 mph /  25.9 km/h 46 % 0.0 in /  0 mm
20:02 17.5 °F /  -8.1 °C 6.1 °F /  -14.4 °C 1018.8 in /  34496.6 hPa West 8.0 mph /  12.9 km/h 20.9 mph /  33.6 km/h 47 % 0.0 in /  0 mm
20:07 17.2 °F /  -8.2 °C 6.1 °F /  -14.4 °C 1018.8 in /  34496.6 hPa WSW 8.0 mph /  12.9 km/h 20.9 mph /  33.6 km/h 48 % 0.0 in /  0 mm
20:12 17.0 °F /  -8.3 °C 6.2 °F /  -14.3 °C 1018.8 in /  34496.6 hPa West 6.4 mph /  10.3 km/h 20.9 mph /  33.6 km/h 49 % 0.0 in /  0 mm
20:22 16.6 °F /  -8.6 °C 6.4 °F /  -14.2 °C 1018.8 in /  34496.6 hPa West 3.2 mph /  5.1 km/h 14.5 mph /  23.3 km/h 51 % 0.0 in /  0 mm
20:32 16.2 °F /  -8.8 °C 6.6 °F /  -14.1 °C 1018.8 in /  34496.6 hPa WSW 9.7 mph /  15.6 km/h 12.9 mph /  20.8 km/h 53 % 0.0 in /  0 mm
20:37 16.1 °F /  -8.8 °C 6.5 °F /  -14.2 °C 1018.8 in /  34496.6 hPa West 6.4 mph /  10.3 km/h 12.9 mph /  20.8 km/h 53 % 0.0 in /  0 mm
20:47 15.6 °F /  -9.1 °C 6.6 °F /  -14.1 °C 1018.8 in /  34496.6 hPa West 4.8 mph /  7.7 km/h 9.7 mph /  15.6 km/h 55 % 0.0 in /  0 mm
20:52 15.5 °F /  -9.2 °C 6.8 °F /  -14 °C 1018.8 in /  34496.6 hPa WSW 6.4 mph /  10.3 km/h 9.7 mph /  15.6 km/h 56 % 0.0 in /  0 mm
21:02 15.1 °F /  -9.4 °C 6.9 °F /  -13.9 °C 1018.8 in /  34496.6 hPa WSW 8.0 mph /  12.9 km/h 9.7 mph /  15.6 km/h 58 % 0.0 in /  0 mm
21:12 14.6 °F /  -9.7 °C 6.9 °F /  -13.9 °C 1019.2 in /  34510.1 hPa West 3.2 mph /  5.1 km/h 9.7 mph /  15.6 km/h 60 % 0.0 in /  0 mm
21:17 14.4 °F /  -9.8 °C 6.7 °F /  -14.1 °C 1019.2 in /  34510.1 hPa WSW 6.4 mph /  10.3 km/h 9.7 mph /  15.6 km/h 60 % 0.0 in /  0 mm
21:22 14.4 °F /  -9.8 °C 6.7 °F /  -14.1 °C 1019.2 in /  34510.1 hPa West 1.6 mph /  2.6 km/h 8.0 mph /  12.9 km/h 60 % 0.0 in /  0 mm
21:32 14.3 °F /  -9.8 °C 6.6 °F /  -14.1 °C 1019.2 in /  34510.1 hPa WSW 3.2 mph /  5.1 km/h 8.0 mph /  12.9 km/h 60 % 0.0 in /  0 mm
21:37 14.2 °F /  -9.9 °C 6.8 °F /  -14 °C 1019.2 in /  34510.1 hPa WNW 4.8 mph /  7.7 km/h 6.4 mph /  10.3 km/h 61 % 0.0 in /  0 mm
21:47 13.5 °F /  -10.3 °C 6.6 °F /  -14.1 °C 1019.5 in /  34520.3 hPa NNW 1.6 mph /  2.6 km/h 6.4 mph /  10.3 km/h 63 % 0.0 in /  0 mm
21:57 13.6 °F /  -10.2 °C 6.2 °F /  -14.3 °C 1019.5 in /  34520.3 hPa NW 3.2 mph /  5.1 km/h 6.4 mph /  10.3 km/h 61 % 0.0 in /  0 mm
22:02 13.6 °F /  -10.2 °C 6.0 °F /  -14.4 °C 1019.5 in /  34520.3 hPa WNW 1.6 mph /  2.6 km/h 6.4 mph /  10.3 km/h 60 % 0.0 in /  0 mm
22:12 13.6 °F /  -10.2 °C 6.0 °F /  -14.4 °C 1019.5 in /  34520.3 hPa WNW 1.6 mph /  2.6 km/h 8.0 mph /  12.9 km/h 60 % 0.0 in /  0 mm
22:17 13.4 °F /  -10.3 °C 5.8 °F /  -14.6 °C 1019.5 in /  34520.3 hPa WNW 3.2 mph /  5.1 km/h 8.0 mph /  12.9 km/h 60 % 0.0 in /  0 mm
22:22 13.4 °F /  -10.3 °C 5.8 °F /  -14.6 °C 1019.5 in /  34520.3 hPa WNW 1.6 mph /  2.6 km/h 8.0 mph /  12.9 km/h 60 % 0.0 in /  0 mm
22:32 13.4 °F /  -10.3 °C 5.5 °F /  -14.7 °C 1019.5 in /  34520.3 hPa WNW 1.6 mph /  2.6 km/h 8.0 mph /  12.9 km/h 59 % 0.0 in /  0 mm
22:37 13.4 °F /  -10.3 °C 5.5 °F /  -14.7 °C 1019.5 in /  34520.3 hPa WNW 3.2 mph /  5.1 km/h 8.0 mph /  12.9 km/h 59 % 0.0 in /  0 mm
22:42 13.3 °F /  -10.4 °C 5.5 °F /  -14.7 °C 1019.5 in /  34520.3 hPa NW 3.2 mph /  5.1 km/h 8.0 mph /  12.9 km/h 59 % 0.0 in /  0 mm
22:47 13.3 °F /  -10.4 °C 5.7 °F /  -14.6 °C 1019.5 in /  34520.3 hPa WNW 4.8 mph /  7.7 km/h 8.0 mph /  12.9 km/h 60 % 0.0 in /  0 mm
22:52 13.3 °F /  -10.4 °C 5.7 °F /  -14.6 °C 1019.5 in /  34520.3 hPa WNW 1.6 mph /  2.6 km/h 6.4 mph /  10.3 km/h 60 % 0.0 in /  0 mm
22:57 13.2 °F /  -10.4 °C 5.6 °F /  -14.7 °C 1019.5 in /  34520.3 hPa Calm   4.8 mph /  7.7 km/h 60 % 0.0 in /  0 mm
23:02 13.1 °F /  -10.5 °C 5.7 °F /  -14.6 °C 1019.5 in /  34520.3 hPa NW 1.6 mph /  2.6 km/h 4.8 mph /  7.7 km/h 61 % 0.0 in /  0 mm
23:07 13.1 °F /  -10.5 °C 5.7 °F /  -14.6 °C 1019.5 in /  34520.3 hPa West 1.6 mph /  2.6 km/h 4.8 mph /  7.7 km/h 61 % 0.0 in /  0 mm
23:17 12.6 °F /  -10.8 °C 5.5 °F /  -14.7 °C 1019.5 in /  34520.3 hPa Calm   4.8 mph /  7.7 km/h 62 % 0.0 in /  0 mm
23:22 12.5 °F /  -10.8 °C 5.6 °F /  -14.7 °C 1019.5 in /  34520.3 hPa Calm   3.2 mph /  5.1 km/h 63 % 0.0 in /  0 mm
23:32 12.3 °F /  -10.9 °C 5.7 °F /  -14.6 °C 1019.5 in /  34520.3 hPa WNW 3.2 mph /  5.1 km/h 3.2 mph /  5.1 km/h 64 % 0.0 in /  0 mm
23:37 12.2 °F /  -11 °C 5.6 °F /  -14.7 °C 1019.5 in /  34520.3 hPa WNW 4.8 mph /  7.7 km/h 4.8 mph /  7.7 km/h 64 % 0.0 in /  0 mm
23:42 12.2 °F /  -11 °C 5.6 °F /  -14.7 °C 1019.5 in /  34520.3 hPa WNW 3.2 mph /  5.1 km/h 4.8 mph /  7.7 km/h 64 % 0.0 in /  0 mm
23:47 12.1 °F /  -11.1 °C 5.7 °F /  -14.6 °C 1019.5 in /  34520.3 hPa West 3.2 mph /  5.1 km/h 6.4 mph /  10.3 km/h 65 % 0.0 in /  0 mm
23:52 12.1 °F /  -11.1 °C 5.7 °F /  -14.6 °C 1019.5 in /  34520.3 hPa WNW 3.2 mph /  5.1 km/h 6.4 mph /  10.3 km/h 65 % 0.0 in /  0 mm
23:57 12.1 °F /  -11.1 °C 5.7 °F /  -14.6 °C 1019.5 in /  34520.3 hPa West 1.6 mph /  2.6 km/h 6.4 mph /  10.3 km/h 65 % 0.0 in /  0 mm
Meteo18
Compliments of Weather Underground - 4 mb

Script developed by  Jim McMurry - jmcmurry@mwt.net Adapted for the template by  Wim van der Kuil - Leuven-Template.eu

You find our weather info also at:

European Weather Network

Weather Underground

Equipment we use:

Weather-station
Davis Vue

Weather-program
Meteobridge

Weather-server
Raspberry PI 2 B+

Provider
1 and 1

Davis Vue

Meteobridge

Raspberry PI 2 B+

1 and 1